Pagrindinis puslapis
METAR-TAF:

METAR-TAF

Oro uostai :

Saint Vincent, Sent Vinsentas

platuma: 13-09-23N, ilguma: 061-09-01W, Aukštis: 41 m

Dabartinis oras

Ataskaita buvo paskelbta 2 valandos ir 49 minutes, ne 23:00 UTC
Vėjas 4 kt iš Šiaurės
Temperatūra 25°C
Drėgmė 94%
Slėgis 1012 hPa
Matomumas 10 km arba daugiau
Išsisklaidę debesys ne aukštis 1200 ft
Su prošvaistėmis ne aukštis 2800 ft

METAR: TVSA 282300Z 01004KT 9999 SCT012 BKN028 25/24 Q1012 TEMPO SHRA

Laikas: 21:49 (01:49 UTC)

Prognozė

Ataskaita buvo paskelbta 2 valandos ir 49 minutes, ne 23:00 UTC
Prognozė galioja nuo 29 metu 00 UTC su 29 metu 24 UTC
Vėjas 4 kt iš Šiaurės Rytų
Matomumas 10 km arba daugiau
Išsisklaidę debesys ne aukštis 1800 ft
Išsisklaidę debesys ne aukštis 3500 ft
Tikimybė 40% :
Laikinai
nuo 29 metu 15 UTC su 29 metu 20 UTC
Su prošvaistėmis ne aukštis 1500 ft
Išsisklaidę debesys ne aukštis 3200 ft

TAF: TVSA 282300Z 2900/2924 05004KT 9999 SCT018 SCT035 PROB40 TEMPO 2915/2920 BKN015 SCT032

Orai ataskaitas ir orų prognozės (METAR, TAF).

turimą stotys yra geltonos ir raudonos taškus žemėlapyje.

Perkelti pele per norėdami pamatyti stoties vardą.

Tada spustelėkite, norėdami matyti oro stebėjimo ir prognozės.

Norėdami pakeisti žemėlapį: spustelėkite ant žalios mygtukų su juodo kryžiaus žemyn,; žalią mygtuką su brūkšneliu, jei norite nutolinti; arba žalių rodyklių gretimoms žemėlapius.


METAR-TAF: